Date,TemperatureHighF,TemperatureAvgF,TemperatureLowF,DewpointHighF,DewpointAvgF,DewpointLowF,HumidityHigh,HumidityAvg,HumidityLow,PressureMaxIn,PressureMinIn,WindSpeedMaxMPH,WindSpeedAvgMPH,GustSpeedMaxMPH,PrecipitationSumIn
2013-4-1,70.5,57.4,48.4,51.6,42.5,33.0,98,64,27,29.96,29.82,6,2,9,0.03
2013-4-2,59.7,47.7,32.0,34.3,25.1,16.8,85,45,20,30.15,29.96,6,1,10,0.00
2013-4-3,58.7,47.5,37.3,32.1,17.6,13.0,60,32,17,30.29,30.13,5,2,7,0.00
2013-4-4,46.8,39.4,34.8,35.2,26.8,12.6,94,65,27,30.34,29.96,7,3,10,0.43
2013-4-5,64.8,48.0,34.4,43.8,36.5,26.4,97,70,27,30.03,29.90,5,2,8,0.00
2013-4-6,69.4,52.0,35.7,34.1,30.2,26.7,87,48,23,30.26,30.03,5,1,8,0.00
2013-4-7,69.3,55.2,38.0,43.9,38.1,30.5,90,56,31,30.25,30.09,6,2,8,0.00
2013-4-8,76.1,63.7,51.8,53.5,49.2,42.5,90,62,37,30.15,30.03,5,2,9,0.00
2013-4-9,82.8,68.8,52.4,56.1,52.2,48.0,93,59,32,30.17,30.04,5,1,9,0.00
2013-4-10,84.6,72.0,58.7,58.9,55.2,52.9,84,58,34,30.08,29.92,5,2,8,0.00
2013-4-11,79.2,69.1,59.4,62.1,57.3,54.3,89,68,44,29.96,29.75,5,2,10,0.00
2013-4-12,80.9,70.1,61.4,64.4,56.2,36.3,96,65,33,29.76,29.57,6,3,11,0.25
2013-4-13,74.3,60.9,45.9,44.6,37.5,32.3,77,45,23,30.00,29.76,5,1,7,0.00
2013-4-14,79.6,62.0,42.4,52.6,39.9,29.8,88,51,19,30.09,30.00,4,1,7,0.00
2013-4-15,67.6,60.6,54.5,55.4,53.3,51.8,93,78,60,30.19,29.98,4,1,5,0.01
2013-4-16,75.9,64.7,55.2,58.8,55.8,52.3,95,74,51,30.28,30.17,2,0,4,0.00
2013-4-17,81.5,67.5,55.8,60.6,56.8,52.3,94,71,41,30.21,30.09,3,0,4,0.00
2013-4-18,78.4,68.7,60.5,60.2,56.8,52.6,87,67,42,30.16,29.99,4,1,7,0.00
2013-4-19,76.2,66.6,57.2,66.5,61.5,54.0,97,84,67,30.00,29.68,7,2,8,0.92
2013-4-20,62.0,51.9,43.0,53.9,34.4,27.0,89,54,27,30.26,29.82,4,1,5,0.00
2013-4-21,60.5,49.9,40.6,39.2,34.6,30.3,86,57,36,30.48,30.26,5,1,7,0.00
2013-4-22,60.8,49.2,36.7,39.0,31.5,22.2,85,54,27,30.45,30.25,5,2,8,0.00
2013-4-23,67.3,54.0,45.0,50.6,44.5,38.4,89,72,50,30.28,30.10,3,0,7,0.00
2013-4-24,71.3,59.1,48.4,54.7,50.5,45.0,95,75,51,30.13,29.97,6,1,9,0.00
2013-4-25,67.8,57.7,46.7,54.2,39.4,28.5,79,53,25,30.27,30.01,2,0,4,0.00
2013-4-26,67.6,57.1,44.7,44.9,34.2,27.3,82,45,24,30.43,30.27,2,0,6,0.00
2013-4-27,65.4,58.2,51.7,51.3,45.8,40.5,84,64,45,30.35,30.25,1,0,2,0.00
2013-4-28,55.4,53.5,51.8,53.3,50.9,47.4,98,91,80,30.25,30.06,2,0,2,1.29
2013-4-29,65.4,58.9,54.1,59.5,56.7,53.5,98,93,74,30.06,29.95,1,0,2,0.39
2013-4-30,62.7,57.9,54.8,57.2,54.7,51.7,98,89,77,30.18,30.00,2,0,4,0.00